Time;durP1;ratioP1;P1;durP2;ratioP2;P2;SDS_P1;SDS_P2;PMS_P1;PMS_P2;Temp;Humidity;BMP_temperature;BMP_pressure;BME280_temperature;BME280_humidity;BME280_pressure;Samples;Min_cycle;Max_cycle;Signal;HPM_P1;HPM_P2
2022/11/06 00:00:42;;;;;;;8.43;2.25;;;10.50;99.90;;;;;;5100474;28;20032;-70
2022/11/06 00:03:09;;;;;;;7.88;2.45;;;10.50;99.90;;;;;;5099870;28;20415;-69
2022/11/06 00:08:50;;;;;;;7.25;2.67;;;10.50;99.90;;;;;;5100542;28;20079;-70
2022/11/06 00:11:17;;;;;;;7.05;2.33;;;10.50;99.90;;;;;;5094343;28;20143;-69
2022/11/06 00:13:43;;;;;;;7.85;3.20;;;10.50;99.90;;;;;;5099782;28;20345;-72
2022/11/06 00:16:11;;;;;;;6.70;2.20;;;10.50;99.90;;;;;;5098724;28;20040;-74
2022/11/06 00:18:41;;;;;;;5.97;2.30;;;10.50;99.90;;;;;;5099897;28;20043;-70
2022/11/06 00:21:15;;;;;;;8.60;2.75;;;10.60;99.90;;;;;;5082419;28;20157;-71
2022/11/06 00:23:42;;;;;;;4.97;2.40;;;10.70;99.90;;;;;;5099264;28;20314;-71
2022/11/06 00:26:10;;;;;;;5.72;2.33;;;10.70;99.90;;;;;;5099750;28;20071;-71
2022/11/06 00:28:36;;;;;;;6.25;2.20;;;10.70;99.90;;;;;;5100217;28;20119;-69
2022/11/06 00:31:07;;;;;;;9.85;2.55;;;10.70;99.90;;;;;;5099197;28;20047;-70
2022/11/06 00:33:33;;;;;;;6.57;2.67;;;10.70;99.90;;;;;;5099191;28;20032;-68
2022/11/06 00:36:02;;;;;;;13.93;2.90;;;10.70;99.90;;;;;;5082201;28;20020;-69
2022/11/06 00:38:28;;;;;;;11.73;2.65;;;10.60;99.90;;;;;;5099833;28;20089;-72
2022/11/06 00:40:54;;;;;;;8.68;2.38;;;10.70;99.90;;;;;;5099064;28;20027;-71
2022/11/06 00:43:24;;;;;;;9.20;2.45;;;10.70;99.90;;;;;;5098740;28;20028;-70
2022/11/06 00:45:50;;;;;;;10.40;2.17;;;10.80;99.90;;;;;;5098832;28;20055;-71
2022/11/06 00:48:15;;;;;;;8.48;2.42;;;10.80;99.90;;;;;;5099695;28;20028;-69
2022/11/06 00:50:41;;;;;;;8.02;2.55;;;10.80;99.90;;;;;;5082177;28;20032;-71
2022/11/06 00:53:07;;;;;;;8.15;2.47;;;10.80;99.90;;;;;;5098812;28;20024;-69
2022/11/06 00:55:33;;;;;;;5.85;2.05;;;10.80;99.90;;;;;;5081811;28;20081;-69
2022/11/06 00:57:58;;;;;;;5.40;2.17;;;10.80;99.90;;;;;;5097619;28;20048;-70
2022/11/06 01:00:24;;;;;;;5.70;2.08;;;10.70;99.90;;;;;;5099076;28;20051;-70
2022/11/06 01:02:50;;;;;;;6.55;2.20;;;10.80;99.90;;;;;;5081015;28;20028;-68
2022/11/06 01:05:16;;;;;;;8.52;2.47;;;10.80;99.90;;;;;;5080987;28;20043;-70
2022/11/06 01:07:42;;;;;;;6.85;2.22;;;10.80;99.90;;;;;;5098513;28;20403;-72
2022/11/06 01:10:10;;;;;;;9.27;2.15;;;10.80;99.90;;;;;;5097779;28;20032;-71
2022/11/06 01:12:36;;;;;;;5.85;2.15;;;10.90;99.90;;;;;;5098097;28;20042;-72
2022/11/06 01:15:01;;;;;;;7.82;2.10;;;10.90;99.90;;;;;;5097555;28;20043;-66
2022/11/06 01:17:27;;;;;;;5.82;2.53;;;10.90;99.90;;;;;;5080658;28;20384;-68
2022/11/06 01:19:54;;;;;;;9.88;2.40;;;10.90;99.90;;;;;;5080973;28;20036;-72
2022/11/06 01:22:19;;;;;;;8.10;2.28;;;10.90;99.90;;;;;;5097522;28;20068;-70
2022/11/06 01:24:45;;;;;;;7.72;2.40;;;11.00;99.90;;;;;;5080676;28;20036;-72
2022/11/06 01:27:11;;;;;;;6.57;2.10;;;11.00;99.90;;;;;;5097964;28;20097;-72
2022/11/06 01:29:37;;;;;;;9.20;2.38;;;11.00;99.90;;;;;;5097910;28;20441;-69
2022/11/06 01:32:03;;;;;;;7.93;2.78;;;11.00;99.90;;;;;;5098401;28;20383;-70
2022/11/06 01:34:29;;;;;;;7.07;2.25;;;11.00;99.90;;;;;;5098511;28;20024;-71
2022/11/06 01:36:55;;;;;;;7.18;2.20;;;11.00;99.90;;;;;;5097473;28;20028;-70
2022/11/06 01:39:21;;;;;;;6.47;2.13;;;11.10;99.90;;;;;;5080941;28;20020;-70
2022/11/06 01:41:49;;;;;;;6.65;2.38;;;11.20;99.90;;;;;;5080131;28;20024;-70
2022/11/06 01:44:39;;;;;;;6.07;2.28;;;11.20;99.90;;;;;;5097364;28;20051;-71
2022/11/06 01:47:24;;;;;;;7.85;2.30;;;11.20;99.90;;;;;;5098422;28;20028;-74
2022/11/06 01:49:55;;;;;;;5.20;2.00;;;11.10;99.90;;;;;;5098018;28;20303;-74
2022/11/06 01:52:22;;;;;;;7.10;2.20;;;11.10;99.90;;;;;;5097581;28;20036;-71
2022/11/06 01:54:54;;;;;;;8.23;1.80;;;11.00;99.90;;;;;;5097007;28;20100;-71
2022/11/06 01:57:21;;;;;;;6.35;2.10;;;11.00;99.90;;;;;;5097970;28;20173;-71
2022/11/06 01:59:54;;;;;;;6.57;2.10;;;11.00;99.90;;;;;;5079826;28;20051;-74
2022/11/06 02:02:20;;;;;;;5.40;1.90;;;11.00;99.90;;;;;;5097926;28;20284;-69
2022/11/06 02:04:49;;;;;;;8.95;1.83;;;11.10;99.90;;;;;;5097425;28;20042;-71
2022/11/06 02:07:17;;;;;;;6.70;2.20;;;11.10;99.90;;;;;;5096814;28;20411;-70
2022/11/06 02:09:47;;;;;;;8.48;2.38;;;11.20;99.90;;;;;;5097160;28;20085;-69
2022/11/06 02:12:46;;;;;;;7.32;1.75;;;11.10;99.90;;;;;;5080203;28;20052;-72
2022/11/06 02:15:36;;;;;;;8.65;2.20;;;11.00;99.90;;;;;;5096643;28;20040;-71
2022/11/06 02:18:31;;;;;;;7.40;2.00;;;11.00;99.90;;;;;;5097221;28;20043;-71
2022/11/06 02:21:17;;;;;;;10.07;2.03;;;11.00;99.90;;;;;;5097246;28;20339;-67
2022/11/06 02:24:24;;;;;;;4.90;1.50;;;11.00;99.90;;;;;;5097262;28;20291;-71
2022/11/06 02:27:01;;;;;;;4.43;1.73;;;11.00;99.90;;;;;;5097523;28;20035;-71
2022/11/06 02:29:49;;;;;;;9.32;2.00;;;11.00;99.90;;;;;;5079894;28;20043;-69
2022/11/06 02:32:37;;;;;;;8.18;1.88;;;11.00;99.90;;;;;;5097060;28;20055;-71
2022/11/06 02:35:29;;;;;;;8.55;1.92;;;11.00;99.90;;;;;;5096257;28;20028;-72
2022/11/06 02:38:06;;;;;;;4.75;1.75;;;11.00;99.90;;;;;;5039010;28;20032;-70
2022/11/06 02:40:38;;;;;;;6.85;1.55;;;11.00;99.90;;;;;;5096383;28;20046;-69
2022/11/06 02:43:06;;;;;;;7.68;1.98;;;11.20;99.90;;;;;;5096793;28;20417;-72
2022/11/06 02:45:38;;;;;;;5.85;1.90;;;11.20;99.90;;;;;;5096943;28;20107;-67
2022/11/06 02:48:07;;;;;;;7.43;2.25;;;11.20;99.90;;;;;;5096275;28;20028;-71
2022/11/06 02:50:41;;;;;;;4.15;1.63;;;11.20;99.90;;;;;;5096765;28;20023;-71
2022/11/06 02:53:09;;;;;;;5.63;1.45;;;11.20;99.90;;;;;;5096083;28;20020;-73
2022/11/06 02:55:42;;;;;;;5.78;1.70;;;11.20;99.90;;;;;;5095980;28;20234;-74
2022/11/06 02:58:15;;;;;;;5.47;1.75;;;11.20;99.90;;;;;;5096744;28;20044;-70
2022/11/06 03:00:47;;;;;;;8.85;2.08;;;11.20;99.90;;;;;;5096883;28;20052;-69
2022/11/06 03:03:20;;;;;;;8.40;1.92;;;11.10;99.90;;;;;;5096743;28;20024;-71
2022/11/06 03:05:56;;;;;;;5.80;1.90;;;11.10;99.90;;;;;;5096706;28;20299;-71
2022/11/06 03:08:43;;;;;;;7.60;2.00;;;11.20;99.90;;;;;;5096066;28;20028;-70
2022/11/06 03:11:22;;;;;;;9.55;2.00;;;11.10;99.90;;;;;;5096534;28;20032;-72
2022/11/06 03:14:12;;;;;;;6.63;1.70;;;11.10;99.90;;;;;;5095945;28;20311;-71
2022/11/06 03:16:58;;;;;;;6.35;1.75;;;11.10;99.90;;;;;;5085478;28;20058;-72
2022/11/06 03:19:41;;;;;;;6.70;1.90;;;11.00;99.90;;;;;;5096998;28;20402;-71
2022/11/06 03:22:20;;;;;;;5.88;1.60;;;11.00;99.90;;;;;;5099923;28;20276;-70
2022/11/06 03:25:04;;;;;;;6.68;2.13;;;10.90;99.90;;;;;;5100903;28;20301;-71
2022/11/06 03:27:48;;;;;;;5.38;1.50;;;10.90;99.90;;;;;;5100491;28;20115;-71
2022/11/06 03:30:14;;;;;;;6.82;2.38;;;11.00;99.90;;;;;;5100611;28;20399;-70
2022/11/06 03:33:06;;;;;;;8.15;1.92;;;11.00;99.90;;;;;;5082809;28;20032;-70
2022/11/06 03:35:39;;;;;;;4.90;1.50;;;10.90;99.90;;;;;;5096511;28;20043;-71
2022/11/06 03:38:14;;;;;;;5.38;1.73;;;10.90;99.90;;;;;;5099510;28;20024;-70
2022/11/06 03:40:48;;;;;;;5.95;1.60;;;10.90;99.90;;;;;;5100354;28;20391;-71
2022/11/06 03:43:17;;;;;;;9.82;1.80;;;11.00;99.90;;;;;;5100777;28;20283;-73
2022/11/06 03:45:46;;;;;;;8.10;2.00;;;11.00;99.90;;;;;;5100090;28;20315;-71
2022/11/06 03:48:18;;;;;;;4.03;1.67;;;10.90;99.90;;;;;;5099572;28;20032;-70
2022/11/06 03:50:57;;;;;;;5.82;1.90;;;10.90;99.90;;;;;;5082458;28;20299;-73
2022/11/06 03:53:34;;;;;;;4.18;1.50;;;11.00;99.90;;;;;;5099697;28;20100;-70
2022/11/06 03:56:15;;;;;;;6.20;1.77;;;11.00;99.90;;;;;;5099959;28;20036;-70
2022/11/06 03:58:45;;;;;;;4.35;1.73;;;11.10;99.90;;;;;;5099916;28;20040;-71
2022/11/06 04:01:13;;;;;;;5.05;1.70;;;11.00;99.90;;;;;;5082775;28;20295;-71
2022/11/06 04:03:55;;;;;;;4.50;1.45;;;11.00;99.90;;;;;;5099356;28;20028;-71
2022/11/06 04:06:33;;;;;;;5.18;1.55;;;10.90;99.90;;;;;;5099357;28;20028;-71
2022/11/06 04:14:40;;;;;;;5.50;1.50;;;10.90;99.90;;;;;;5100284;28;20107;-71
2022/11/06 04:17:09;;;;;;;4.00;1.50;;;10.90;99.90;;;;;;5099910;28;20288;-73
2022/11/06 04:19:42;;;;;;;7.32;1.60;;;10.90;99.90;;;;;;5082224;28;20063;-71
2022/11/06 04:22:28;;;;;;;5.22;1.70;;;11.00;99.90;;;;;;5099290;28;20075;-71
2022/11/06 04:28:00;;;;;;;5.75;1.50;;;10.90;99.90;;;;;;5099029;28;20413;-71
2022/11/06 04:30:31;;;;;;;5.10;1.65;;;10.80;99.90;;;;;;5098856;28;20339;-72
2022/11/06 04:33:21;;;;;;;2.65;1.27;;;10.70;99.90;;;;;;5099267;28;20078;-71
2022/11/06 04:36:10;;;;;;;5.82;1.60;;;10.70;99.90;;;;;;5099300;28;20028;-72
2022/11/06 04:39:06;;;;;;;5.22;1.80;;;10.60;99.90;;;;;;5099325;28;20028;-71
2022/11/06 04:41:51;;;;;;;6.00;1.60;;;10.60;99.90;;;;;;5098625;28;20036;-71
2022/11/06 04:44:32;;;;;;;5.72;1.55;;;10.50;99.90;;;;;;5099296;28;20042;-72
2022/11/06 04:47:04;;;;;;;4.78;1.63;;;10.50;99.90;;;;;;5099301;28;20063;-70
2022/11/06 04:49:32;;;;;;;4.03;1.65;;;10.50;99.90;;;;;;5099269;28;20036;-71
2022/11/06 04:52:06;;;;;;;5.95;1.83;;;10.50;99.90;;;;;;5098210;28;20032;-70
2022/11/06 04:54:33;;;;;;;5.50;1.50;;;10.50;99.90;;;;;;5097977;28;20411;-71
2022/11/06 04:56:59;;;;;;;6.30;1.77;;;10.50;99.90;;;;;;5098664;28;20436;-70
2022/11/06 04:59:25;;;;;;;4.78;1.40;;;10.60;99.90;;;;;;5098685;28;20048;-69
2022/11/06 05:01:52;;;;;;;4.95;1.50;;;10.60;99.90;;;;;;5097890;28;20035;-70
2022/11/06 05:04:18;;;;;;;6.93;1.92;;;10.50;99.90;;;;;;5081277;28;20023;-70
2022/11/06 05:06:44;;;;;;;5.30;1.55;;;10.50;99.90;;;;;;5097822;28;20046;-70
2022/11/06 05:09:13;;;;;;;5.20;1.65;;;10.50;99.90;;;;;;5098357;28;20166;-71
2022/11/06 05:11:39;;;;;;;4.30;1.48;;;10.50;99.90;;;;;;5064623;28;20146;-71
2022/11/06 05:14:05;;;;;;;5.75;1.45;;;10.50;99.90;;;;;;5080928;28;20357;-71
2022/11/06 05:16:31;;;;;;;3.03;1.50;;;10.50;99.90;;;;;;5098597;28;20041;-72
2022/11/06 05:18:57;;;;;;;8.07;2.08;;;10.50;99.90;;;;;;5098437;28;20288;-70
2022/11/06 05:24:08;;;;;;;7.35;1.63;;;10.50;99.90;;;;;;5098447;28;20050;-71
2022/11/06 05:26:34;;;;;;;5.95;1.60;;;10.50;99.90;;;;;;5098376;28;20028;-71
2022/11/06 05:29:00;;;;;;;7.97;1.88;;;10.50;99.90;;;;;;5080555;28;20042;-71
2022/11/06 05:31:26;;;;;;;6.68;1.42;;;10.50;99.90;;;;;;5098073;28;20077;-70
2022/11/06 05:33:53;;;;;;;4.07;1.63;;;10.50;99.90;;;;;;5097247;28;20027;-71
2022/11/06 05:36:18;;;;;;;7.05;1.70;;;10.50;99.90;;;;;;5097575;28;20303;-72
2022/11/06 05:38:44;;;;;;;8.25;1.50;;;10.40;99.90;;;;;;5097483;28;20043;-71
2022/11/06 05:41:10;;;;;;;8.02;2.10;;;10.40;99.90;;;;;;5097344;28;20373;-71
2022/11/06 05:43:36;;;;;;;7.05;1.80;;;10.40;99.90;;;;;;5096861;28;20048;-69
2022/11/06 05:46:02;;;;;;;8.18;2.00;;;10.30;99.90;;;;;;5098762;28;20049;-70
2022/11/06 05:48:28;;;;;;;4.75;1.42;;;10.30;99.90;;;;;;5064312;28;20032;-70
2022/11/06 05:51:02;;;;;;;6.97;1.90;;;10.20;99.90;;;;;;5096995;28;20032;-70
2022/11/06 05:53:30;;;;;;;6.97;1.70;;;10.30;99.90;;;;;;5080123;28;20027;-70
2022/11/06 05:55:56;;;;;;;5.85;1.88;;;10.30;99.90;;;;;;5080180;28;20047;-71
2022/11/06 05:58:22;;;;;;;9.05;1.48;;;10.30;99.90;;;;;;5097535;28;20040;-70
2022/11/06 06:00:48;;;;;;;4.75;1.60;;;10.30;99.90;;;;;;5097257;28;20028;-70
2022/11/06 06:03:14;;;;;;;4.38;1.55;;;10.20;99.90;;;;;;5097336;28;20316;-70
2022/11/06 06:05:39;;;;;;;6.25;2.00;;;10.20;99.90;;;;;;5096928;28;20032;-70
2022/11/06 06:08:05;;;;;;;6.68;2.05;;;10.20;99.90;;;;;;5097607;28;20024;-71
2022/11/06 06:10:31;;;;;;;7.80;1.50;;;10.20;99.90;;;;;;5080631;28;20036;-70
2022/11/06 06:12:57;;;;;;;9.82;1.88;;;10.20;99.90;;;;;;5097481;28;20129;-69
2022/11/06 06:15:23;;;;;;;7.50;1.80;;;10.20;99.90;;;;;;5097974;28;20036;-70
2022/11/06 06:17:49;;;;;;;7.57;2.20;;;10.20;99.90;;;;;;5096821;28;20064;-70
2022/11/06 06:20:15;;;;;;;8.00;1.70;;;10.20;99.90;;;;;;5097857;28;20126;-70
2022/11/06 06:22:40;;;;;;;7.75;1.90;;;10.20;99.90;;;;;;5098762;28;20410;-70
2022/11/06 06:25:06;;;;;;;6.95;1.90;;;10.20;99.90;;;;;;5080233;28;20311;-70
2022/11/06 06:27:35;;;;;;;5.55;1.90;;;10.30;99.90;;;;;;5096273;28;20055;-70
2022/11/06 06:30:01;;;;;;;7.32;1.65;;;10.30;99.90;;;;;;5096624;28;20452;-70
2022/11/06 06:32:27;;;;;;;6.05;1.80;;;10.30;99.90;;;;;;5096582;28;20048;-71
2022/11/06 06:34:52;;;;;;;9.23;2.08;;;10.30;99.90;;;;;;5097239;28;20024;-71
2022/11/06 06:37:18;;;;;;;5.75;1.73;;;10.30;99.90;;;;;;5096937;28;20338;-72
2022/11/06 06:39:44;;;;;;;4.90;2.00;;;10.30;99.90;;;;;;5079399;28;20076;-71
2022/11/06 06:42:10;;;;;;;7.97;1.73;;;10.40;99.90;;;;;;5079787;28;20122;-70
2022/11/06 06:44:36;;;;;;;7.80;1.75;;;10.30;99.90;;;;;;5096302;28;20039;-71
2022/11/06 06:47:01;;;;;;;4.07;1.80;;;10.40;99.90;;;;;;5096292;28;20032;-71
2022/11/06 06:49:28;;;;;;;3.72;1.55;;;10.40;99.90;;;;;;5096476;28;20037;-70
2022/11/06 06:51:54;;;;;;;5.45;1.58;;;10.40;99.90;;;;;;5079427;28;20062;-70
2022/11/06 06:54:23;;;;;;;5.97;1.63;;;10.40;99.90;;;;;;5096157;28;20334;-70
2022/11/06 06:56:49;;;;;;;4.22;1.65;;;10.40;99.90;;;;;;5100288;28;20371;-71
2022/11/06 06:59:14;;;;;;;8.13;1.88;;;10.40;99.90;;;;;;5100800;28;20075;-70
2022/11/06 07:01:40;;;;;;;8.30;2.03;;;10.40;99.90;;;;;;5083668;28;20042;-69
2022/11/06 07:04:07;;;;;;;6.45;1.67;;;10.40;99.90;;;;;;5084135;28;20399;-71
2022/11/06 07:06:33;;;;;;;5.75;1.80;;;10.50;99.90;;;;;;5100959;28;20032;-70
2022/11/06 07:08:59;;;;;;;5.47;1.77;;;10.60;99.90;;;;;;5100886;28;20032;-71
2022/11/06 07:11:24;;;;;;;6.68;1.60;;;10.60;99.90;;;;;;5083226;28;20048;-70
2022/11/06 07:13:50;;;;;;;5.10;1.90;;;10.70;99.90;;;;;;5100280;28;20486;-68
2022/11/06 07:16:16;;;;;;;4.72;1.70;;;10.80;99.90;;;;;;5083269;28;20040;-71
2022/11/06 07:18:42;;;;;;;4.07;1.92;;;10.80;99.90;;;;;;5100057;28;20032;-68
2022/11/06 07:21:11;;;;;;;7.43;1.50;;;10.90;99.90;;;;;;5083167;28;20039;-68
2022/11/06 07:23:38;;;;;;;4.03;1.60;;;11.00;99.90;;;;;;5100810;28;20032;-71
2022/11/06 07:26:04;;;;;;;5.57;1.45;;;11.10;99.90;;;;;;5083053;28;20302;-71
2022/11/06 07:28:34;;;;;;;6.72;1.50;;;11.10;99.90;;;;;;5100753;28;20089;-69
2022/11/06 07:31:04;;;;;;;7.10;1.60;;;11.10;99.90;;;;;;5100484;28;20115;-70
2022/11/06 07:33:30;;;;;;;7.13;1.73;;;11.20;99.90;;;;;;5100673;28;20294;-70
2022/11/06 07:36:04;;;;;;;4.20;1.38;;;11.30;99.90;;;;;;5083069;28;20020;-70
2022/11/06 07:38:33;;;;;;;6.10;1.52;;;11.30;99.90;;;;;;5100398;28;20077;-70
2022/11/06 07:41:08;;;;;;;3.70;1.42;;;11.40;99.90;;;;;;5100958;28;20044;-69
2022/11/06 07:43:34;;;;;;;5.57;1.23;;;11.40;99.90;;;;;;5099528;28;20032;-69
2022/11/06 07:46:05;;;;;;;7.57;1.48;;;11.40;99.90;;;;;;5083396;28;20028;-71
2022/11/06 07:48:32;;;;;;;3.45;1.30;;;11.50;99.90;;;;;;5100286;28;20031;-69
2022/11/06 07:51:01;;;;;;;4.88;1.10;;;11.60;99.90;;;;;;5082476;28;20307;-69
2022/11/06 07:53:26;;;;;;;7.68;1.50;;;11.70;99.90;;;;;;5082630;28;20343;-68
2022/11/06 07:55:54;;;;;;;5.72;1.38;;;11.70;99.90;;;;;;5099836;28;20085;-68
2022/11/06 07:58:20;;;;;;;5.60;1.30;;;11.80;99.90;;;;;;5099111;28;20437;-70
2022/11/06 08:00:55;;;;;;;4.55;1.58;;;11.80;99.90;;;;;;5099414;28;20035;-70
2022/11/06 08:03:22;;;;;;;4.82;1.30;;;11.80;99.90;;;;;;5099236;28;20292;-71
2022/11/06 08:05:48;;;;;;;2.78;1.25;;;11.80;99.90;;;;;;5099772;28;20363;-71
2022/11/06 08:08:14;;;;;;;3.40;1.27;;;11.90;99.90;;;;;;5099705;28;20028;-70
2022/11/06 08:10:42;;;;;;;7.35;1.42;;;11.80;99.90;;;;;;5082463;28;20146;-69
2022/11/06 08:13:13;;;;;;;4.47;1.05;;;11.80;99.90;;;;;;5099956;28;20016;-71
2022/11/06 08:15:40;;;;;;;3.28;1.00;;;11.80;99.90;;;;;;5099278;28;20039;-70
2022/11/06 08:18:07;;;;;;;2.28;1.17;;;11.80;99.90;;;;;;5099808;28;20042;-70
2022/11/06 08:20:34;;;;;;;5.50;1.50;;;12.00;99.90;;;;;;5082034;28;20115;-69
2022/11/06 08:23:01;;;;;;;7.53;1.70;;;12.00;99.90;;;;;;5098801;28;20032;-71
2022/11/06 08:25:28;;;;;;;7.38;1.65;;;12.10;99.90;;;;;;5081999;28;20032;-69
2022/11/06 08:27:58;;;;;;;2.03;1.17;;;12.30;99.90;;;;;;5098712;28;20058;-70
2022/11/06 08:30:25;;;;;;;4.57;1.48;;;12.30;99.90;;;;;;5098842;28;20067;-70
2022/11/06 08:32:51;;;;;;;3.60;1.30;;;12.50;99.90;;;;;;5099502;28;20043;-68
2022/11/06 08:35:17;;;;;;;4.30;1.38;;;12.70;99.90;;;;;;5099486;28;20062;-69
2022/11/06 08:37:43;;;;;;;3.22;1.73;;;12.70;99.90;;;;;;5099578;28;20020;-70
2022/11/06 08:40:10;;;;;;;4.43;1.40;;;12.70;99.90;;;;;;5081573;28;20028;-69
2022/11/06 08:42:36;;;;;;;5.45;2.78;;;12.70;99.90;;;;;;5098421;28;20126;-68
2022/11/06 08:45:02;;;;;;;7.32;1.88;;;12.70;99.90;;;;;;5098387;28;20060;-68
2022/11/06 08:47:28;;;;;;;5.15;1.70;;;12.80;99.90;;;;;;5099133;28;20042;-68
2022/11/06 08:49:54;;;;;;;6.55;1.48;;;12.80;99.90;;;;;;5099117;28;20467;-67
2022/11/06 08:52:21;;;;;;;3.75;1.30;;;12.90;99.90;;;;;;5098028;28;20123;-69
2022/11/06 08:54:47;;;;;;;4.65;1.50;;;12.80;99.90;;;;;;5098055;28;20039;-67
2022/11/06 08:57:12;;;;;;;3.90;1.23;;;12.80;99.90;;;;;;5098332;28;20089;-69
2022/11/06 08:59:38;;;;;;;5.43;1.35;;;12.80;99.90;;;;;;5099178;28;20052;-70
2022/11/06 09:02:04;;;;;;;8.32;2.75;;;12.90;99.90;;;;;;5098076;28;20043;-70
2022/11/06 09:04:30;;;;;;;6.82;2.85;;;13.10;99.90;;;;;;5098142;28;20089;-69
2022/11/06 09:06:57;;;;;;;3.70;1.52;;;12.90;99.90;;;;;;5097931;28;20050;-68
2022/11/06 09:09:30;;;;;;;3.95;1.75;;;12.80;99.90;;;;;;5098258;28;20047;-70
2022/11/06 09:12:00;;;;;;;4.55;1.85;;;12.70;99.90;;;;;;5065758;28;20028;-71
2022/11/06 09:14:27;;;;;;;5.97;2.05;;;12.90;99.90;;;;;;5081169;28;20067;-69
2022/11/06 09:16:52;;;;;;;6.85;1.83;;;13.20;99.90;;;;;;5080992;28;20020;-69
2022/11/06 09:19:19;;;;;;;6.38;2.42;;;13.20;99.90;;;;;;5097496;28;20119;-70
2022/11/06 09:21:45;;;;;;;7.65;1.42;;;12.90;99.90;;;;;;5080996;28;20036;-69
2022/11/06 09:24:11;;;;;;;5.40;1.60;;;12.80;99.90;;;;;;5081355;28;20352;-69
2022/11/06 09:26:36;;;;;;;5.10;1.42;;;12.90;99.90;;;;;;5081735;28;20070;-69
2022/11/06 09:29:03;;;;;;;4.38;1.13;;;12.90;99.90;;;;;;5097822;28;20035;-70
2022/11/06 09:31:29;;;;;;;4.43;1.42;;;12.90;99.90;;;;;;5098347;28;20032;-68
2022/11/06 09:33:54;;;;;;;4.75;1.10;;;12.90;99.90;;;;;;5080738;28;20039;-68
2022/11/06 09:36:21;;;;;;;4.47;1.35;;;12.90;99.90;;;;;;5063797;28;20040;-69
2022/11/06 09:38:47;;;;;;;3.28;1.25;;;12.90;99.90;;;;;;5097417;28;20032;-68
2022/11/06 09:41:31;;;;;;;4.60;1.17;;;12.90;99.90;;;;;;5080692;28;20531;-70
2022/11/06 09:45:05;;;;;;;4.07;1.20;;;12.90;99.90;;;;;;5097996;28;20322;-69
2022/11/06 09:47:37;;;;;;;6.20;1.48;;;12.90;99.90;;;;;;5056377;28;20346;-69
2022/11/06 09:50:07;;;;;;;5.40;1.42;;;12.90;99.90;;;;;;5056494;28;20048;-68
2022/11/06 09:52:35;;;;;;;3.03;1.10;;;12.90;99.90;;;;;;5078647;28;20035;-69
2022/11/06 09:55:24;;;;;;;3.42;1.10;;;13.00;99.90;;;;;;5097660;28;20024;-70
2022/11/06 09:57:53;;;;;;;6.25;1.20;;;13.10;99.90;;;;;;5096183;28;20046;-69
2022/11/06 10:00:19;;;;;;;4.50;1.20;;;13.10;99.90;;;;;;5097761;28;20107;-70
2022/11/06 10:02:55;;;;;;;4.00;1.20;;;13.10;99.90;;;;;;5097658;28;20174;-69
2022/11/06 10:05:32;;;;;;;2.90;1.05;;;13.20;99.90;;;;;;5096989;28;20020;-68
2022/11/06 10:08:12;;;;;;;3.15;1.45;;;13.20;99.90;;;;;;5097126;28;20031;-70
2022/11/06 10:10:52;;;;;;;5.28;1.10;;;13.30;99.90;;;;;;5098212;28;20038;-70
2022/11/06 10:13:48;;;;;;;3.33;0.95;;;13.30;99.90;;;;;;5097563;28;20043;-68
2022/11/06 10:16:35;;;;;;;6.13;1.10;;;13.20;99.90;;;;;;5096900;28;20048;-71
2022/11/06 10:19:35;;;;;;;7.35;1.23;;;13.20;99.90;;;;;;5079793;28;20108;-69
2022/11/06 10:22:10;;;;;;;2.70;1.00;;;13.30;99.90;;;;;;5096576;28;20086;-70
2022/11/06 10:25:04;;;;;;;5.90;1.17;;;13.50;99.90;;;;;;5097222;28;20107;-70
2022/11/06 10:27:39;;;;;;;4.43;1.20;;;13.60;99.90;;;;;;5096700;28;20036;-69
2022/11/06 10:30:18;;;;;;;4.40;1.13;;;13.50;99.90;;;;;;5097131;28;20055;-70
2022/11/06 10:33:03;;;;;;;4.15;1.10;;;13.30;99.90;;;;;;5097112;28;20038;-70
2022/11/06 10:35:49;;;;;;;2.88;0.93;;;13.20;99.90;;;;;;5098079;28;20407;-70
2022/11/06 10:38:23;;;;;;;4.80;1.40;;;13.20;99.90;;;;;;5082852;28;20043;-68
2022/11/06 10:40:52;;;;;;;2.83;0.90;;;13.10;99.90;;;;;;5096631;28;20028;-69
2022/11/06 10:43:47;;;;;;;4.38;1.20;;;13.00;99.90;;;;;;5096218;28;20082;-69
2022/11/06 10:46:37;;;;;;;6.18;1.30;;;13.00;99.90;;;;;;5096440;28;20028;-70
2022/11/06 10:49:20;;;;;;;2.15;1.20;;;13.10;99.90;;;;;;5079503;28;20093;-70
2022/11/06 10:52:19;;;;;;;5.57;1.70;;;13.10;99.90;;;;;;5097011;28;20032;-70
2022/11/06 10:55:33;;;;;;;7.20;1.17;;;13.20;99.90;;;;;;5097153;28;20311;-70
2022/11/06 10:58:04;;;;;;;10.25;1.33;;;13.20;99.90;;;;;;5036024;28;20108;-72
2022/11/06 11:00:31;;;;;;;3.08;0.93;;;13.30;99.90;;;;;;5097586;28;20114;-71
2022/11/06 11:03:00;;;;;;;6.05;1.23;;;13.40;99.90;;;;;;5096968;28;20032;-71
2022/11/06 11:05:33;;;;;;;4.20;1.27;;;13.40;99.90;;;;;;5096932;28;20097;-70
2022/11/06 11:07:58;;;;;;;7.00;1.23;;;13.20;99.90;;;;;;5096978;28;20338;-73
2022/11/06 11:10:37;;;;;;;5.10;1.15;;;13.10;99.90;;;;;;5097053;28;20038;-71
2022/11/06 11:13:05;;;;;;;2.85;0.98;;;12.90;99.90;;;;;;5079354;28;20062;-72
2022/11/06 11:15:42;;;;;;;3.55;1.20;;;12.70;99.90;;;;;;5096208;28;20028;-71
2022/11/06 11:18:16;;;;;;;4.75;1.20;;;12.70;99.90;;;;;;5096103;28;20028;-72
2022/11/06 11:20:48;;;;;;;2.95;1.10;;;12.70;99.90;;;;;;5096917;28;20035;-69
2022/11/06 11:23:23;;;;;;;5.40;1.20;;;12.60;99.90;;;;;;5096959;28;20269;-71
2022/11/06 11:25:55;;;;;;;4.90;1.27;;;12.60;99.90;;;;;;5097334;28;20035;-67
2022/11/06 11:28:31;;;;;;;3.47;1.30;;;12.80;99.90;;;;;;5096592;28;20025;-70
2022/11/06 11:31:18;;;;;;;5.20;1.20;;;12.70;99.90;;;;;;5096584;28;20056;-68
2022/11/06 11:33:54;;;;;;;7.43;1.40;;;12.80;99.90;;;;;;5096768;28;20036;-68
2022/11/06 11:36:20;;;;;;;3.85;1.30;;;12.80;99.90;;;;;;5096689;28;20326;-69
2022/11/06 11:38:47;;;;;;;5.97;1.50;;;12.90;99.90;;;;;;5079029;28;20441;-70
2022/11/06 11:41:20;;;;;;;5.70;1.30;;;13.00;99.90;;;;;;5079891;28;20278;-65
2022/11/06 11:44:16;;;;;;;4.60;1.20;;;13.00;99.90;;;;;;5100505;28;20020;-67
2022/11/06 11:46:53;;;;;;;4.45;1.00;;;12.90;99.90;;;;;;5066690;28;20037;-68
2022/11/06 11:49:31;;;;;;;7.07;1.67;;;12.90;99.90;;;;;;5099573;28;20039;-68
2022/11/06 11:52:02;;;;;;;5.18;1.83;;;12.90;99.90;;;;;;5099536;28;20036;-69
2022/11/06 11:54:34;;;;;;;5.88;1.40;;;12.90;99.90;;;;;;5100847;28;20024;-69
2022/11/06 11:57:05;;;;;;;8.38;1.52;;;12.80;99.90;;;;;;5100558;28;20063;-70
2022/11/06 11:59:46;;;;;;;6.10;1.40;;;12.80;99.90;;;;;;5099895;28;20055;-70
2022/11/06 12:02:33;;;;;;;4.65;1.42;;;12.80;99.90;;;;;;5099677;28;20425;-70
2022/11/06 12:05:02;;;;;;;6.43;1.13;;;12.80;99.90;;;;;;5100131;28;20374;-70
2022/11/06 12:07:31;;;;;;;5.43;1.67;;;12.80;99.90;;;;;;5100243;28;20346;-66
2022/11/06 12:09:58;;;;;;;5.85;1.80;;;12.70;99.90;;;;;;5099897;28;20042;-69
2022/11/06 12:12:32;;;;;;;4.75;1.38;;;12.70;99.90;;;;;;5100313;28;20105;-71
2022/11/06 12:15:16;;;;;;;4.07;1.40;;;12.50;99.90;;;;;;5100337;28;20261;-68
2022/11/06 12:17:44;;;;;;;5.43;1.65;;;12.40;99.90;;;;;;5099900;28;20405;-71
2022/11/06 12:20:16;;;;;;;6.18;1.23;;;12.30;99.90;;;;;;5099092;28;20036;-68
2022/11/06 12:22:46;;;;;;;3.58;1.45;;;12.30;99.90;;;;;;5099861;28;20129;-71
2022/11/06 12:25:24;;;;;;;7.90;1.95;;;12.20;99.90;;;;;;5100163;28;20299;-72
2022/11/06 12:28:00;;;;;;;6.18;1.65;;;12.10;99.90;;;;;;5099103;28;20032;-70
2022/11/06 12:30:27;;;;;;;5.25;1.52;;;12.10;99.90;;;;;;5100290;28;20047;-70
2022/11/06 12:33:27;;;;;;;4.90;1.50;;;12.00;99.90;;;;;;5099505;28;20031;-73
2022/11/06 12:36:11;;;;;;;5.68;1.58;;;11.90;99.90;;;;;;5055918;28;20063;-72
2022/11/06 12:38:43;;;;;;;6.45;1.52;;;11.80;99.90;;;;;;5098596;28;20277;-70
2022/11/06 12:41:18;;;;;;;6.78;1.70;;;11.60;99.90;;;;;;5099312;28;20032;-72
2022/11/06 12:43:46;;;;;;;6.15;1.75;;;11.50;99.90;;;;;;5099312;28;20043;-72
2022/11/06 12:46:12;;;;;;;9.35;1.70;;;11.50;99.90;;;;;;5098578;28;20059;-73
2022/11/06 12:49:03;;;;;;;4.60;1.70;;;11.40;99.90;;;;;;5098574;28;20052;-75
2022/11/06 12:51:40;;;;;;;6.70;2.00;;;11.30;99.90;;;;;;5099277;28;20055;-71
2022/11/06 12:54:18;;;;;;;5.32;1.60;;;11.30;99.90;;;;;;5098601;28;20055;-70
2022/11/06 12:57:18;;;;;;;5.00;2.20;;;11.20;99.90;;;;;;5098225;28;20024;-71
2022/11/06 12:59:49;;;;;;;5.22;2.53;;;11.20;99.90;;;;;;5081190;28;20044;-74
2022/11/06 13:02:46;;;;;;;3.70;1.88;;;11.10;99.90;;;;;;5098945;28;20039;-71
2022/11/06 13:05:17;;;;;;;7.93;2.33;;;11.00;99.90;;;;;;5098973;28;20028;-72
2022/11/06 13:08:25;;;;;;;7.00;2.10;;;11.00;99.90;;;;;;5098385;28;20050;-71
2022/11/06 13:10:51;;;;;;;10.05;3.08;;;11.00;99.90;;;;;;5017320;28;20049;-73
2022/11/06 13:13:38;;;;;;;7.22;2.63;;;10.90;99.90;;;;;;5017155;28;20041;-73
2022/11/06 13:16:22;;;;;;;8.32;2.67;;;10.90;99.90;;;;;;5067325;28;20170;-73
2022/11/06 13:19:10;;;;;;;8.90;2.42;;;10.80;99.90;;;;;;5081160;28;20032;-70
2022/11/06 13:21:54;;;;;;;8.25;3.00;;;10.80;99.90;;;;;;5097955;28;20032;-73
2022/11/06 13:24:32;;;;;;;6.30;2.50;;;10.70;99.90;;;;;;5097824;28;20352;-72
2022/11/06 13:27:15;;;;;;;9.23;2.50;;;10.70;99.90;;;;;;5098655;28;20031;-75